Time;durP1;ratioP1;P1;durP2;ratioP2;P2;SDS_P1;SDS_P2;PMS_P1;PMS_P2;Temp;Humidity;BMP_temperature;BMP_pressure;BME280_temperature;BME280_humidity;BME280_pressure;Samples;Min_cycle;Max_cycle;Signal;HPM_P1;HPM_P2
2021/10/10 00:01:21;;;;;;;50.33;32.20;;;;;6.60;102237.00;;;;10315841;28;20302;-78
2021/10/10 00:06:23;;;;;;;48.00;31.53;;;;;6.50;102231.00;;;;10326256;28;20204;-78
2021/10/10 00:11:24;;;;;;;46.13;31.37;;;;;6.50;102232.00;;;;10327300;28;20207;-77
2021/10/10 00:16:25;;;;;;;48.90;31.83;;;;;6.40;102226.00;;;;10337317;28;20560;-78
2021/10/10 00:21:26;;;;;;;53.03;33.90;;;;;6.40;102232.00;;;;10308147;28;20219;-77
2021/10/10 00:26:27;;;;;;;50.47;32.97;;;;;6.30;102232.00;;;;10318254;28;20347;-77
2021/10/10 00:31:29;;;;;;;49.47;32.53;;;;;6.30;102233.00;;;;10311657;28;20215;-78
2021/10/10 00:36:30;;;;;;;51.47;33.87;;;;;6.20;102230.00;;;;10314858;28;20199;-77
2021/10/10 00:41:32;;;;;;;53.50;33.93;;;;;6.30;102232.00;;;;10309253;28;20226;-78
2021/10/10 00:46:33;;;;;;;55.57;33.27;;;;;6.20;102229.00;;;;10303046;28;20677;-78
2021/10/10 00:51:38;;;;;;;52.10;32.20;;;;;6.20;102223.00;;;;10331154;28;20196;-78
2021/10/10 00:56:43;;;;;;;60.47;36.07;;;;;6.10;102221.00;;;;10304505;28;20281;-78
2021/10/10 01:01:44;;;;;;;55.67;35.93;;;;;6.10;102218.00;;;;10348321;28;20298;-78
2021/10/10 01:06:46;;;;;;;61.87;37.33;;;;;6.10;102233.00;;;;10346424;28;21096;-78
2021/10/10 01:11:48;;;;;;;64.60;38.17;;;;;6.10;102222.00;;;;10314135;28;20195;-78
2021/10/10 01:16:49;;;;;;;62.30;37.60;;;;;6.00;102217.00;;;;10313506;28;20250;-80
2021/10/10 01:21:55;;;;;;;56.90;36.00;;;;;6.00;102217.00;;;;10314393;28;20318;-79
2021/10/10 01:26:56;;;;;;;49.60;33.17;;;;;6.00;102199.00;;;;10305420;28;20671;-78
2021/10/10 01:31:57;;;;;;;49.30;33.67;;;;;5.90;102196.00;;;;10312801;28;20196;-78
2021/10/10 01:37:00;;;;;;;58.07;35.90;;;;;5.90;102207.00;;;;10313600;28;20195;-78
2021/10/10 01:42:01;;;;;;;52.93;32.20;;;;;5.80;102206.00;;;;10289743;28;20637;-78
2021/10/10 01:47:03;;;;;;;53.93;32.67;;;;;5.80;102217.00;;;;10328143;28;20582;-78
2021/10/10 01:52:05;;;;;;;55.20;33.07;;;;;5.80;102201.00;;;;10312439;28;20249;-78
2021/10/10 01:57:06;;;;;;;68.90;35.17;;;;;5.80;102198.00;;;;10313452;28;20746;-79
2021/10/10 02:02:07;;;;;;;122.30;41.43;;;;;5.70;102197.00;;;;10327438;28;20704;-78
2021/10/10 02:07:09;;;;;;;100.13;39.57;;;;;5.60;102195.00;;;;10329028;28;20696;-81
2021/10/10 02:12:11;;;;;;;65.57;35.50;;;;;5.60;102194.00;;;;10328371;28;20230;-79
2021/10/10 02:17:12;;;;;;;70.17;36.60;;;;;5.50;102200.00;;;;10311929;28;20260;-78
2021/10/10 02:22:13;;;;;;;99.40;39.43;;;;;5.50;102191.00;;;;10327870;28;20229;-79
2021/10/10 02:27:14;;;;;;;120.17;39.00;;;;;5.50;102193.00;;;;10297599;28;20192;-79
2021/10/10 02:32:16;;;;;;;94.93;39.23;;;;;5.50;102183.00;;;;10308404;28;20258;-78
2021/10/10 02:37:17;;;;;;;123.17;42.47;;;;;5.60;102178.00;;;;10326738;28;20238;-79
2021/10/10 02:42:18;;;;;;;154.07;42.83;;;;;5.60;102186.00;;;;10304089;28;20224;-79
2021/10/10 02:47:19;;;;;;;154.43;43.97;;;;;5.60;102176.00;;;;10331711;28;20203;-79
2021/10/10 02:52:21;;;;;;;144.70;41.90;;;;;5.60;102177.00;;;;10323734;28;20196;-79
2021/10/10 02:57:22;;;;;;;93.27;36.60;;;;;5.50;102181.00;;;;10311240;28;20274;-79
2021/10/10 03:02:24;;;;;;;67.33;34.73;;;;;5.40;102177.00;;;;10343236;28;20223;-81
2021/10/10 03:07:25;;;;;;;65.93;35.87;;;;;5.30;102168.00;;;;10311230;28;21188;-81
2021/10/10 03:12:26;;;;;;;63.73;35.33;;;;;5.30;102171.00;;;;10310448;28;20200;-78
2021/10/10 03:17:28;;;;;;;55.23;36.10;;;;;5.20;102174.00;;;;10343207;28;20211;-79
2021/10/10 03:22:29;;;;;;;48.93;33.23;;;;;5.10;102178.00;;;;10309126;28;20219;-79
2021/10/10 03:27:30;;;;;;;50.10;32.00;;;;;5.10;102179.00;;;;10342068;28;20253;-79
2021/10/10 03:32:32;;;;;;;49.70;33.03;;;;;5.00;102186.00;;;;10328827;28;20219;-79
2021/10/10 03:37:36;;;;;;;51.37;33.07;;;;;5.00;102187.00;;;;10325644;28;20210;-79
2021/10/10 03:42:38;;;;;;;46.80;30.63;;;;;4.90;102177.00;;;;10309567;28;20219;-78
2021/10/10 03:47:41;;;;;;;44.23;30.90;;;;;4.80;102167.00;;;;10310891;28;20721;-80
2021/10/10 03:52:43;;;;;;;38.53;28.77;;;;;4.80;102166.00;;;;10342702;28;20637;-80
2021/10/10 03:57:44;;;;;;;40.07;28.07;;;;;4.70;102164.00;;;;10326240;28;20219;-79
2021/10/10 04:02:45;;;;;;;39.07;28.37;;;;;4.70;102164.00;;;;10308680;28;20230;-80
2021/10/10 04:07:48;;;;;;;36.43;28.23;;;;;4.60;102170.00;;;;10326779;28;20698;-81
2021/10/10 04:12:50;;;;;;;37.00;27.93;;;;;4.60;102157.00;;;;10327188;28;20207;-80
2021/10/10 04:17:51;;;;;;;37.57;26.90;;;;;4.60;102162.00;;;;10305128;28;20200;-79
2021/10/10 04:22:52;;;;;;;35.87;26.63;;;;;4.50;102174.00;;;;10308703;28;20238;-81
2021/10/10 04:27:53;;;;;;;36.53;26.80;;;;;4.50;102168.00;;;;10292071;28;20198;-81
2021/10/10 04:32:54;;;;;;;41.37;28.23;;;;;4.50;102173.00;;;;10325572;28;20658;-81
2021/10/10 04:37:56;;;;;;;41.47;28.47;;;;;4.50;102159.00;;;;10310473;28;20203;-81
2021/10/10 04:42:57;;;;;;;36.80;25.67;;;;;4.50;102168.00;;;;10343373;28;20223;-81
2021/10/10 04:47:59;;;;;;;40.03;28.10;;;;;4.40;102155.00;;;;10340378;28;20262;-81
2021/10/10 04:53:00;;;;;;;44.07;28.60;;;;;4.40;102155.00;;;;10286366;28;20679;-81
2021/10/10 04:58:02;;;;;;;39.73;27.73;;;;;4.30;102155.00;;;;10304263;28;21137;-82
2021/10/10 05:03:03;;;;;;;38.27;25.67;;;;;4.30;102167.00;;;;10325436;28;20318;-80
2021/10/10 05:08:05;;;;;;;38.77;26.13;;;;;4.30;102160.00;;;;10307635;28;20231;-81
2021/10/10 05:13:07;;;;;;;47.13;30.47;;;;;4.20;102156.00;;;;10309529;28;20637;-81
2021/10/10 05:18:09;;;;;;;41.60;29.17;;;;;4.20;102172.00;;;;10300800;28;20211;-82
2021/10/10 05:23:15;;;;;;;46.03;29.20;;;;;4.20;102173.00;;;;10324419;28;20219;-81
2021/10/10 05:28:16;;;;;;;41.70;29.07;;;;;4.20;102173.00;;;;10309012;28;20200;-81
2021/10/10 05:33:21;;;;;;;43.63;29.60;;;;;4.20;102174.00;;;;10309989;28;20238;-81
2021/10/10 05:38:22;;;;;;;43.27;29.17;;;;;4.10;102166.00;;;;10341230;28;20211;-82
2021/10/10 05:43:23;;;;;;;43.40;28.27;;;;;4.10;102165.00;;;;10331922;28;20770;-81
2021/10/10 05:48:24;;;;;;;41.93;28.23;;;;;4.10;102167.00;;;;10291778;28;21189;-81
2021/10/10 05:53:26;;;;;;;46.03;29.47;;;;;4.10;102173.00;;;;10353367;28;21085;-81
2021/10/10 05:58:31;;;;;;;44.50;28.30;;;;;4.10;102173.00;;;;10348236;28;20686;-80
2021/10/10 06:03:32;;;;;;;45.90;30.13;;;;;4.20;102180.00;;;;10323549;28;20235;-80
2021/10/10 06:08:33;;;;;;;43.90;28.53;;;;;4.30;102188.00;;;;10315858;28;20211;-80
2021/10/10 06:13:34;;;;;;;45.10;28.33;;;;;4.30;102184.00;;;;10332341;28;20214;-81
2021/10/10 06:18:35;;;;;;;41.90;28.10;;;;;4.40;102181.00;;;;10322731;28;20211;-81
2021/10/10 06:23:37;;;;;;;41.93;27.93;;;;;4.50;102187.00;;;;10297065;28;20238;-81
2021/10/10 06:28:38;;;;;;;56.93;30.30;;;;;4.70;102190.00;;;;10289765;28;20207;-81
2021/10/10 06:33:39;;;;;;;59.57;33.53;;;;;4.90;102194.00;;;;10332349;28;20203;-81
2021/10/10 06:38:40;;;;;;;69.50;34.93;;;;;5.20;102192.00;;;;10314938;28;20196;-81
2021/10/10 06:43:41;;;;;;;71.50;38.00;;;;;5.40;102205.00;;;;10315442;28;20403;-82
2021/10/10 06:48:43;;;;;;;70.10;37.87;;;;;5.60;102207.00;;;;10330749;28;20728;-82
2021/10/10 06:53:44;;;;;;;58.80;36.53;;;;;5.90;102213.00;;;;10323327;28;20231;-81
2021/10/10 06:58:45;;;;;;;61.43;35.50;;;;;6.10;102219.00;;;;10275776;28;20196;-82
2021/10/10 07:03:46;;;;;;;69.10;35.60;;;;;6.20;102202.00;;;;10327457;28;20295;-81
2021/10/10 07:08:48;;;;;;;55.53;34.20;;;;;6.40;102198.00;;;;10328400;28;20204;-81
2021/10/10 07:13:49;;;;;;;64.73;36.77;;;;;6.70;102181.00;;;;10344404;28;20212;-81
2021/10/10 07:18:52;;;;;;;58.20;36.37;;;;;7.10;102223.00;;;;10294695;28;20266;-81
2021/10/10 07:28:54;;;;;;;55.40;34.07;;;;;7.20;102241.00;;;;10312486;28;20234;-81
2021/10/10 07:33:56;;;;;;;52.97;35.40;;;;;7.40;102244.00;;;;10307674;28;20200;-82
2021/10/10 07:38:57;;;;;;;50.83;31.73;;;;;7.70;102259.00;;;;10337226;28;20230;-81
2021/10/10 07:43:59;;;;;;;45.53;31.83;;;;;7.60;102270.00;;;;10346617;28;20721;-81
2021/10/10 07:49:00;;;;;;;52.00;33.83;;;;;7.80;102270.00;;;;10330210;28;20203;-81
2021/10/10 07:54:02;;;;;;;55.43;34.47;;;;;8.10;102271.00;;;;10357669;28;20238;-81
2021/10/10 07:59:04;;;;;;;44.73;33.50;;;;;8.50;102270.00;;;;10326378;28;20249;-79
2021/10/10 08:04:05;;;;;;;56.53;35.73;;;;;8.40;102266.00;;;;10296133;28;20231;-79
2021/10/10 08:09:06;;;;;;;54.90;37.30;;;;;8.60;102261.00;;;;10307290;28;20728;-81
2021/10/10 08:14:07;;;;;;;59.77;38.07;;;;;8.90;102273.00;;;;10308929;28;20284;-79
2021/10/10 08:19:09;;;;;;;74.03;32.40;;;;;8.90;102272.00;;;;10310972;28;20709;-78
2021/10/10 08:24:11;;;;;;;78.07;35.50;;;;;8.90;102280.00;;;;10322221;28;20725;-81
2021/10/10 08:29:13;;;;;;;83.60;39.80;;;;;9.30;102278.00;;;;10311275;28;20231;-79
2021/10/10 08:34:15;;;;;;;102.13;45.07;;;;;9.60;102286.00;;;;10309661;28;20199;-79
2021/10/10 08:39:24;;;;;;;72.03;42.00;;;;;10.10;102286.00;;;;10316074;28;20203;-81
2021/10/10 08:44:35;;;;;;;85.73;48.87;;;;;10.40;102300.00;;;;10341519;28;20219;-79
2021/10/10 08:49:37;;;;;;;91.50;47.10;;;;;10.80;102303.00;;;;10301878;28;20207;-79
2021/10/10 08:54:39;;;;;;;112.83;47.77;;;;;11.20;102306.00;;;;10308052;28;20216;-79
2021/10/10 08:59:42;;;;;;;91.97;48.33;;;;;11.60;102322.00;;;;10309632;28;20671;-79
2021/10/10 09:04:43;;;;;;;91.97;47.97;;;;;12.00;102325.00;;;;10324243;28;21001;-81
2021/10/10 09:09:44;;;;;;;88.23;50.83;;;;;12.30;102349.00;;;;10330174;28;20207;-80
2021/10/10 09:14:52;;;;;;;81.57;50.10;;;;;11.80;102361.00;;;;10327630;28;20206;-79
2021/10/10 09:19:58;;;;;;;87.47;51.73;;;;;11.90;102358.00;;;;10349448;28;20574;-78
2021/10/10 09:25:11;;;;;;;79.10;49.40;;;;;11.60;102357.00;;;;10324933;28;20875;-78
2021/10/10 09:30:12;;;;;;;84.57;49.13;;;;;11.30;102361.00;;;;10307847;28;20265;-78
2021/10/10 09:35:29;;;;;;;87.47;50.67;;;;;11.80;102350.00;;;;10299594;28;20222;-80
2021/10/10 09:40:33;;;;;;;102.23;59.53;;;;;12.40;102340.00;;;;10348910;28;20199;-80
2021/10/10 09:45:52;;;;;;;92.57;57.30;;;;;12.90;102339.00;;;;10317302;28;20199;-78
2021/10/10 09:50:53;;;;;;;98.60;56.70;;;;;13.30;102336.00;;;;10276254;28;20203;-80
2021/10/10 09:56:03;;;;;;;89.23;55.63;;;;;13.80;102332.00;;;;10323520;28;20223;-79
2021/10/10 10:01:16;;;;;;;86.17;53.93;;;;;14.00;102331.00;;;;10304311;28;20709;-78
2021/10/10 10:06:17;;;;;;;85.90;54.73;;;;;13.40;102327.00;;;;10357673;28;20206;-78
2021/10/10 10:11:19;;;;;;;80.97;52.60;;;;;12.90;102324.00;;;;10329311;28;20211;-80
2021/10/10 10:16:23;;;;;;;81.03;52.00;;;;;13.10;102314.00;;;;10324079;28;20218;-78
2021/10/10 10:21:26;;;;;;;77.00;52.03;;;;;13.50;102303.00;;;;10336386;28;20262;-78
2021/10/10 10:26:33;;;;;;;78.50;51.87;;;;;14.20;102302.00;;;;10309872;28;20215;-77
2021/10/10 10:31:36;;;;;;;76.33;52.33;;;;;14.70;102295.00;;;;10288973;28;20200;-77
2021/10/10 10:36:55;;;;;;;67.60;47.90;;;;;15.20;102301.00;;;;10316778;28;20594;-77
2021/10/10 10:41:56;;;;;;;65.17;48.83;;;;;15.60;102313.00;;;;10294242;28;20227;-77
2021/10/10 10:47:10;;;;;;;66.23;47.87;;;;;16.00;102327.00;;;;10311591;28;20250;-77
2021/10/10 10:52:26;;;;;;;64.30;45.53;;;;;16.20;102325.00;;;;10342346;28;20212;-77
2021/10/10 10:57:35;;;;;;;60.67;42.80;;;;;16.40;102323.00;;;;10323849;28;20227;-80
2021/10/10 11:02:55;;;;;;;61.65;46.33;;;;;16.40;102289.00;;;;10331586;28;20234;-77
2021/10/10 11:07:58;;;;;;;54.10;42.28;;;;;16.80;102287.00;;;;10360511;28;20210;-76
2021/10/10 11:13:06;;;;;;;58.47;43.42;;;;;17.10;102298.00;;;;10326164;28;20600;-77
2021/10/10 11:18:07;;;;;;;53.55;39.67;;;;;17.20;102291.00;;;;10356891;28;20195;-77
2021/10/10 11:23:14;;;;;;;52.90;40.25;;;;;17.20;102285.00;;;;10301822;28;20231;-79
2021/10/10 11:28:33;;;;;;;53.22;40.55;;;;;17.40;102277.00;;;;10324964;28;20611;-79
2021/10/10 11:33:41;;;;;;;56.50;39.47;;;;;17.40;102267.00;;;;10342788;28;20214;-79
2021/10/10 11:38:50;;;;;;;57.38;40.38;;;;;17.60;102273.00;;;;10325128;28;20337;-79
2021/10/10 11:44:03;;;;;;;52.80;38.22;;;;;17.70;102262.00;;;;10323538;28;20258;-79
2021/10/10 11:49:20;;;;;;;53.40;39.10;;;;;18.10;102257.00;;;;10341623;28;20214;-78
2021/10/10 11:54:36;;;;;;;50.38;37.33;;;;;18.20;102255.00;;;;10327365;28;20847;-77
2021/10/10 11:59:48;;;;;;;53.80;37.22;;;;;18.20;102250.00;;;;10302383;28;20203;-78
2021/10/10 12:05:01;;;;;;;50.70;37.50;;;;;18.20;102234.00;;;;10320685;28;20255;-76
2021/10/10 12:10:05;;;;;;;53.53;37.30;;;;;18.40;102251.00;;;;10309054;28;20207;-77
2021/10/10 12:15:07;;;;;;;56.15;39.42;;;;;18.50;102238.00;;;;10342188;28;20204;-77
2021/10/10 12:20:17;;;;;;;57.22;40.00;;;;;18.40;102237.00;;;;10334504;28;20198;-76
2021/10/10 12:25:39;;;;;;;53.20;39.97;;;;;18.60;102231.00;;;;10326147;28;20720;-76
2021/10/10 12:30:43;;;;;;;55.55;39.35;;;;;18.70;102229.00;;;;10342002;28;20203;-77
2021/10/10 12:36:15;;;;;;;60.15;39.58;;;;;18.80;102216.00;;;;10341632;28;20199;-76
2021/10/10 12:41:19;;;;;;;54.33;37.45;;;;;18.70;102216.00;;;;10324538;28;20227;-79
2021/10/10 12:46:22;;;;;;;53.67;38.17;;;;;19.00;102206.00;;;;10324819;28;20209;-78
2021/10/10 12:51:24;;;;;;;59.55;39.00;;;;;18.90;102216.00;;;;10307938;28;20208;-78
2021/10/10 12:56:27;;;;;;;62.58;41.38;;;;;19.00;102217.00;;;;10301126;28;20880;-79
2021/10/10 13:01:31;;;;;;;48.20;36.33;;;;;19.00;102211.00;;;;10302980;28;20270;-79
2021/10/10 13:06:50;;;;;;;50.65;35.95;;;;;19.10;102200.00;;;;10320744;28;20199;-76
2021/10/10 13:11:53;;;;;;;51.22;35.33;;;;;18.90;102203.00;;;;10311533;28;20204;-79
2021/10/10 13:16:55;;;;;;;51.35;35.75;;;;;19.10;102196.00;;;;10290675;28;20204;-78
2021/10/10 13:21:56;;;;;;;50.67;34.30;;;;;18.90;102199.00;;;;10340684;28;20234;-79
2021/10/10 13:26:58;;;;;;;51.42;35.08;;;;;18.60;102194.00;;;;10324484;28;20207;-79
2021/10/10 13:32:00;;;;;;;51.67;37.33;;;;;18.80;102200.00;;;;10316260;28;20219;-79
2021/10/10 13:37:01;;;;;;;56.80;39.55;;;;;19.20;102205.00;;;;10293142;28;20199;-79
2021/10/10 13:42:02;;;;;;;54.70;38.78;;;;;19.50;102205.00;;;;10339810;28;20208;-79
2021/10/10 13:47:03;;;;;;;52.78;38.28;;;;;19.60;102204.00;;;;10315285;28;20210;-79
2021/10/10 13:52:04;;;;;;;55.72;38.97;;;;;19.40;102200.00;;;;10330326;28;20204;-80
2021/10/10 13:57:06;;;;;;;52.28;38.60;;;;;19.20;102194.00;;;;10294090;28;20230;-79
2021/10/10 14:02:11;;;;;;;55.10;40.63;;;;;19.40;102200.00;;;;10314413;28;20250;-80
2021/10/10 14:07:12;;;;;;;61.95;41.53;;;;;19.50;102191.00;;;;10319395;28;20203;-79
2021/10/10 14:12:17;;;;;;;58.25;42.03;;;;;19.20;102190.00;;;;10310737;28;20731;-79
2021/10/10 14:17:18;;;;;;;55.88;41.22;;;;;18.80;102191.00;;;;10311964;28;20204;-79
2021/10/10 14:22:21;;;;;;;60.15;42.55;;;;;18.70;102180.00;;;;10347535;28;20274;-79
2021/10/10 14:27:23;;;;;;;60.72;44.78;;;;;18.10;102179.00;;;;10322659;28;20222;-79
2021/10/10 14:32:24;;;;;;;60.58;45.47;;;;;18.10;102177.00;;;;10351816;28;20215;-79
2021/10/10 14:37:25;;;;;;;66.32;47.72;;;;;18.10;102175.00;;;;10329243;28;20208;-80
2021/10/10 14:52:46;;;;;;;77.47;54.72;;;;;17.30;102178.00;;;;10330986;28;20212;-79
2021/10/10 14:57:50;;;;;;;74.60;52.97;;;;;17.00;102173.00;;;;10319361;28;20232;-77
2021/10/10 15:02:52;;;;;;;77.53;55.03;;;;;16.80;102172.00;;;;10302096;28;20590;-78
2021/10/10 15:07:53;;;;;;;79.28;56.55;;;;;16.60;102166.00;;;;10345572;28;20257;-79
2021/10/10 15:12:55;;;;;;;76.95;53.85;;;;;16.60;102172.00;;;;10328585;28;20860;-80
2021/10/10 15:17:56;;;;;;;62.47;47.67;;;;;16.50;102171.00;;;;10328462;28;20725;-79
2021/10/10 15:22:58;;;;;;;61.42;43.28;;;;;16.50;102166.00;;;;10312594;28;20278;-79
2021/10/10 15:28:01;;;;;;;54.60;41.20;;;;;16.30;102157.00;;;;10329678;28;20219;-79
2021/10/10 15:33:02;;;;;;;56.30;39.05;;;;;16.20;102158.00;;;;10290285;28;20586;-80
2021/10/10 15:38:04;;;;;;;39.63;26.75;;;;;16.10;102152.00;;;;10317734;28;20235;-80
2021/10/10 15:43:09;;;;;;;34.75;27.63;;;;;16.00;102149.00;;;;10299781;28;20223;-80
2021/10/10 15:48:10;;;;;;;39.25;29.60;;;;;16.00;102151.00;;;;10299554;28;20199;-80
2021/10/10 15:53:14;;;;;;;43.00;28.85;;;;;15.90;102141.00;;;;10325128;28;20923;-80
2021/10/10 15:58:15;;;;;;;43.83;32.60;;;;;15.90;102140.00;;;;10284380;28;20235;-80
2021/10/10 16:03:16;;;;;;;41.10;30.10;;;;;15.80;102150.00;;;;10328331;28;20215;-80
2021/10/10 16:08:18;;;;;;;43.25;31.45;;;;;15.60;102149.00;;;;10312089;28;20211;-80
2021/10/10 16:13:20;;;;;;;41.97;29.75;;;;;15.30;102154.00;;;;10325274;28;20200;-80
2021/10/10 16:18:21;;;;;;;44.88;30.90;;;;;15.10;102148.00;;;;10285871;28;20298;-80
2021/10/10 16:23:22;;;;;;;49.03;33.53;;;;;14.80;102149.00;;;;10289700;28;20701;-80
2021/10/10 16:28:24;;;;;;;50.97;33.17;;;;;14.50;102150.00;;;;10288467;28;20216;-80
2021/10/10 16:33:28;;;;;;;47.20;34.47;;;;;14.20;102146.00;;;;10326731;28;20670;-79
2021/10/10 16:38:41;;;;;;;52.67;35.83;;;;;14.00;102149.00;;;;10359779;28;20206;-80
2021/10/10 16:43:49;;;;;;;52.13;36.77;;;;;13.70;102139.00;;;;10337005;28;20260;-79
2021/10/10 16:48:51;;;;;;;51.53;35.47;;;;;13.50;102157.00;;;;10339587;28;20254;-80
2021/10/10 16:53:52;;;;;;;52.80;37.47;;;;;13.30;102149.00;;;;10325174;28;20223;-80
2021/10/10 16:58:54;;;;;;;56.80;37.30;;;;;13.20;102150.00;;;;10320523;28;20254;-80
2021/10/10 17:03:55;;;;;;;54.93;37.70;;;;;13.00;102153.00;;;;10314173;28;20694;-80
2021/10/10 17:08:56;;;;;;;56.93;38.63;;;;;12.80;102161.00;;;;10323744;28;20200;-81
2021/10/10 17:14:03;;;;;;;58.63;39.37;;;;;12.70;102158.00;;;;10336460;28;20285;-81
2021/10/10 17:19:04;;;;;;;62.70;39.70;;;;;12.50;102155.00;;;;10299153;28;20207;-80
2021/10/10 17:24:06;;;;;;;69.53;39.60;;;;;12.30;102157.00;;;;10325049;28;20226;-80
2021/10/10 17:29:08;;;;;;;63.30;39.53;;;;;12.20;102157.00;;;;10285997;28;20200;-80
2021/10/10 17:34:10;;;;;;;64.20;40.83;;;;;12.20;102155.00;;;;10346235;28;20200;-80
2021/10/10 17:39:11;;;;;;;66.33;40.23;;;;;12.30;102170.00;;;;10329340;28;20207;-79
2021/10/10 17:44:12;;;;;;;66.23;42.80;;;;;12.50;102174.00;;;;10300065;28;20238;-80
2021/10/10 17:49:13;;;;;;;66.07;42.67;;;;;12.60;102182.00;;;;10320502;28;20258;-80
2021/10/10 17:54:16;;;;;;;62.13;39.07;;;;;12.70;102189.00;;;;10309761;28;20231;-80
2021/10/10 18:14:59;;;;;;;69.30;41.70;;;;;12.50;102182.00;;;;10356414;28;20207;-80
2021/10/10 18:20:02;;;;;;;62.77;41.87;;;;;12.30;102186.00;;;;10317847;28;20203;-80
2021/10/10 18:25:04;;;;;;;58.50;40.17;;;;;12.10;102181.00;;;;10327354;28;20567;-80
2021/10/10 18:30:08;;;;;;;62.50;41.30;;;;;11.90;102175.00;;;;10311489;28;20204;-80
2021/10/10 18:35:12;;;;;;;65.93;42.37;;;;;11.70;102172.00;;;;10328799;28;20200;-80
2021/10/10 18:40:14;;;;;;;64.80;41.47;;;;;11.60;102176.00;;;;10327585;28;20225;-80
2021/10/10 18:45:16;;;;;;;68.27;44.03;;;;;11.50;102176.00;;;;10311778;28;20223;-80
2021/10/10 18:50:17;;;;;;;67.00;43.47;;;;;11.40;102169.00;;;;10311596;28;20200;-80
2021/10/10 18:55:18;;;;;;;71.93;43.07;;;;;11.30;102170.00;;;;10343762;28;20671;-81
2021/10/10 19:00:19;;;;;;;64.80;39.57;;;;;11.30;102167.00;;;;10319123;28;20306;-81
2021/10/10 19:05:21;;;;;;;63.80;41.80;;;;;11.20;102170.00;;;;10327699;28;20230;-80
2021/10/10 19:10:22;;;;;;;65.10;41.63;;;;;11.10;102161.00;;;;10308407;28;20745;-80
2021/10/10 19:15:24;;;;;;;67.53;43.10;;;;;11.00;102154.00;;;;10301560;28;20199;-80
2021/10/10 19:20:25;;;;;;;66.87;41.50;;;;;11.00;102151.00;;;;10345407;28;20203;-80
2021/10/10 19:25:26;;;;;;;72.43;42.27;;;;;11.00;102150.00;;;;10341569;28;20226;-80
2021/10/10 19:30:32;;;;;;;72.93;43.97;;;;;11.00;102156.00;;;;10322490;28;20203;-80
2021/10/10 19:35:33;;;;;;;67.80;42.50;;;;;11.00;102153.00;;;;10304404;28;20236;-81
2021/10/10 19:40:35;;;;;;;69.53;43.50;;;;;11.00;102158.00;;;;10313719;28;20195;-80
2021/10/10 19:45:36;;;;;;;68.20;41.70;;;;;11.00;102163.00;;;;10305302;28;20234;-80
2021/10/10 19:50:56;;;;;;;71.83;42.63;;;;;11.00;102160.00;;;;10284581;28;20707;-81
2021/10/10 19:55:59;;;;;;;71.60;41.90;;;;;11.00;102164.00;;;;10313168;28;20284;-80
2021/10/10 20:01:00;;;;;;;65.97;41.47;;;;;10.90;102178.00;;;;10309790;28;20210;-80
2021/10/10 20:06:07;;;;;;;65.57;40.97;;;;;10.90;102185.00;;;;10324447;28;20672;-80
2021/10/10 20:11:08;;;;;;;69.73;43.63;;;;;10.90;102192.00;;;;10308261;28;20956;-80
2021/10/10 20:16:13;;;;;;;71.60;42.13;;;;;11.10;102199.00;;;;10290272;28;20221;-80
2021/10/10 20:21:15;;;;;;;72.13;44.77;;;;;11.30;102213.00;;;;10296564;28;20234;-80
2021/10/10 20:26:33;;;;;;;72.50;43.47;;;;;11.40;102217.00;;;;10324547;28;20704;-80
2021/10/10 20:31:37;;;;;;;68.63;42.57;;;;;11.60;102226.00;;;;10338397;28;20214;-81
2021/10/10 20:36:39;;;;;;;71.40;44.50;;;;;11.60;102228.00;;;;10344713;28;20226;-80
2021/10/10 20:41:40;;;;;;;67.33;42.17;;;;;11.80;102232.00;;;;10322907;28;20682;-80
2021/10/10 20:46:41;;;;;;;73.57;44.33;;;;;11.90;102220.00;;;;10317455;28;20199;-81
2021/10/10 20:51:43;;;;;;;72.37;45.73;;;;;12.20;102228.00;;;;10323835;28;20215;-80
2021/10/10 20:56:44;;;;;;;76.47;46.80;;;;;12.30;102228.00;;;;10327381;28;20223;-81
2021/10/10 21:01:45;;;;;;;67.00;44.73;;;;;12.40;102232.00;;;;10337455;28;20223;-81
2021/10/10 21:06:49;;;;;;;71.20;40.53;;;;;12.50;102235.00;;;;10314907;28;20286;-80
2021/10/10 21:11:51;;;;;;;68.90;43.57;;;;;12.50;102222.00;;;;10317507;28;20301;-81
2021/10/10 21:16:52;;;;;;;65.73;43.00;;;;;12.50;102206.00;;;;10318935;28;20742;-80
2021/10/10 21:21:54;;;;;;;63.80;40.20;;;;;12.40;102194.00;;;;10316666;28;20226;-80
2021/10/10 21:26:56;;;;;;;71.10;44.80;;;;;12.40;102188.00;;;;10299001;28;21097;-80
2021/10/10 21:32:10;;;;;;;69.37;44.47;;;;;12.40;102198.00;;;;10357636;28;20214;-80
2021/10/10 21:37:12;;;;;;;76.97;44.90;;;;;12.40;102199.00;;;;10322094;28;20214;-80
2021/10/10 21:42:13;;;;;;;77.97;46.20;;;;;12.40;102195.00;;;;10324075;28;20219;-80
2021/10/10 21:47:15;;;;;;;82.77;47.90;;;;;12.40;102198.00;;;;10324122;28;20290;-81
2021/10/10 21:52:16;;;;;;;83.93;47.53;;;;;12.40;102200.00;;;;10324856;28;20200;-81
2021/10/10 21:57:17;;;;;;;81.93;46.83;;;;;12.40;102195.00;;;;10325117;28;20215;-81
2021/10/10 22:02:19;;;;;;;76.13;44.60;;;;;12.40;102190.00;;;;10355749;28;20730;-81
2021/10/10 22:07:22;;;;;;;72.37;42.70;;;;;12.40;102193.00;;;;10340767;28;20203;-82
2021/10/10 22:12:23;;;;;;;70.57;39.60;;;;;12.40;102191.00;;;;10309358;28;20203;-83
2021/10/10 22:17:24;;;;;;;61.47;37.10;;;;;12.50;102199.00;;;;10299753;28;20212;-82
2021/10/10 22:22:26;;;;;;;61.80;36.70;;;;;12.50;102204.00;;;;10269551;28;20638;-81
2021/10/10 22:27:33;;;;;;;65.27;37.20;;;;;12.50;102201.00;;;;10299865;28;20200;-81
2021/10/10 22:32:35;;;;;;;57.20;33.83;;;;;12.50;102198.00;;;;10303757;28;20670;-81
2021/10/10 22:37:36;;;;;;;63.93;36.40;;;;;12.50;102201.00;;;;10323242;28;20218;-81
2021/10/10 22:42:37;;;;;;;64.40;36.17;;;;;12.60;102194.00;;;;10324234;28;20281;-82
2021/10/10 22:47:38;;;;;;;60.17;33.50;;;;;12.50;102196.00;;;;10307656;28;20218;-81
2021/10/10 22:52:40;;;;;;;59.07;34.23;;;;;12.50;102198.00;;;;10339904;28;20222;-81
2021/10/10 22:57:41;;;;;;;59.37;32.53;;;;;12.60;102195.00;;;;10324115;28;20224;-81
2021/10/10 23:02:42;;;;;;;59.67;33.07;;;;;12.60;102194.00;;;;10338228;28;20246;-81
2021/10/10 23:07:44;;;;;;;57.83;32.07;;;;;12.60;102197.00;;;;10314535;28;20208;-81
2021/10/10 23:12:46;;;;;;;60.63;33.03;;;;;12.60;102193.00;;;;10320331;28;20258;-81
2021/10/10 23:17:48;;;;;;;54.97;30.77;;;;;12.60;102196.00;;;;10322635;28;20210;-81
2021/10/10 23:22:51;;;;;;;54.43;31.10;;;;;12.50;102181.00;;;;10353864;28;20218;-81
2021/10/10 23:27:52;;;;;;;57.63;28.47;;;;;12.50;102191.00;;;;10322734;28;20199;-81
2021/10/10 23:32:54;;;;;;;51.73;28.10;;;;;12.50;102188.00;;;;10306191;28;20195;-81
2021/10/10 23:37:55;;;;;;;50.03;26.87;;;;;12.50;102185.00;;;;10337649;28;20203;-81
2021/10/10 23:42:57;;;;;;;45.93;25.73;;;;;12.40;102190.00;;;;10321997;28;20694;-81
2021/10/10 23:47:58;;;;;;;46.97;26.07;;;;;12.40;102191.00;;;;10321433;28;20562;-81
2021/10/10 23:53:00;;;;;;;45.57;23.87;;;;;12.40;102191.00;;;;10354357;28;20229;-81
2021/10/10 23:58:04;;;;;;;40.10;23.20;;;;;12.40;102179.00;;;;10320520;28;20211;-81
